Time;durP1;ratioP1;P1;durP2;ratioP2;P2;SDS_P1;SDS_P2;PMS_P1;PMS_P2;Temp;Humidity;BMP_temperature;BMP_pressure;BME280_temperature;BME280_humidity;BME280_pressure;Samples;Min_cycle;Max_cycle;Signal;HPM_P1;HPM_P2
2023/12/10 00:02:30;;;;;;;55.50;19.00;;;;;;;;;;6206965;23;20167;-89
2023/12/10 00:05:35;;;;;;;57.70;18.77;;;;;;;;;;6208179;23;20209;-91
2023/12/10 00:08:40;;;;;;;50.30;17.57;;;;;;;;;;6206780;23;20178;-90
2023/12/10 00:11:45;;;;;;;40.13;15.93;;;;;;;;;;6208783;23;20175;-90
2023/12/10 00:14:55;;;;;;;43.07;15.60;;;;;;;;;;6210978;23;20170;-89
2023/12/10 00:18:00;;;;;;;41.93;15.60;;;;;;;;;;6210750;23;20241;-90
2023/12/10 00:21:05;;;;;;;36.67;14.53;;;;;;;;;;6209968;23;20166;-91
2023/12/10 00:24:10;;;;;;;39.07;14.27;;;;;;;;;;6210681;23;20710;-92
2023/12/10 00:27:15;;;;;;;36.87;13.67;;;;;;;;;;6210057;23;20171;-91
2023/12/10 00:30:26;;;;;;;33.17;13.77;;;;;;;;;;6210544;23;20195;-90
2023/12/10 00:33:31;;;;;;;33.87;13.60;;;;;;;;;;6210472;23;20258;-90
2023/12/10 00:36:36;;;;;;;39.07;14.63;;;;;;;;;;6210220;23;20191;-90
2023/12/10 00:39:43;;;;;;;32.60;12.70;;;;;;;;;;6210513;23;20194;-91
2023/12/10 00:42:52;;;;;;;33.23;13.67;;;;;;;;;;6209512;23;20175;-91
2023/12/10 00:45:59;;;;;;;32.70;12.87;;;;;;;;;;6210364;23;20190;-91
2023/12/10 00:49:04;;;;;;;28.43;11.50;;;;;;;;;;6209980;23;20498;-90
2023/12/10 00:52:09;;;;;;;36.00;12.63;;;;;;;;;;6210303;23;20175;-89
2023/12/10 00:55:14;;;;;;;37.70;13.00;;;;;;;;;;6209108;23;20628;-92
2023/12/10 00:58:22;;;;;;;38.07;13.40;;;;;;;;;;6208284;23;20187;-88
2023/12/10 01:01:28;;;;;;;32.67;12.77;;;;;;;;;;6209488;23;20151;-93
2023/12/10 01:04:32;;;;;;;35.83;12.83;;;;;;;;;;6209217;23;20183;-93
2023/12/10 01:07:37;;;;;;;34.60;13.10;;;;;;;;;;6207003;23;20524;-92
2023/12/10 01:10:43;;;;;;;30.73;12.50;;;;;;;;;;6208323;23;20171;-93
2023/12/10 01:13:48;;;;;;;32.73;12.67;;;;;;;;;;6206862;23;20243;-92
2023/12/10 01:16:59;;;;;;;30.07;12.37;;;;;;;;;;6207901;23;20171;-92
2023/12/10 01:20:04;;;;;;;31.43;12.37;;;;;;;;;;6208685;23;20279;-92
2023/12/10 01:23:10;;;;;;;30.90;11.70;;;;;;;;;;6211206;23;20172;-91
2023/12/10 01:26:15;;;;;;;28.23;11.43;;;;;;;;;;6209720;23;20191;-90
2023/12/10 01:29:24;;;;;;;32.10;12.13;;;;;;;;;;6208189;23;20163;-90
2023/12/10 01:32:30;;;;;;;34.83;12.43;;;;;;;;;;6209559;23;20198;-90
2023/12/10 01:35:35;;;;;;;33.50;12.17;;;;;;;;;;6210897;23;20179;-93
2023/12/10 01:38:40;;;;;;;31.23;12.07;;;;;;;;;;6210982;23;20171;-91
2023/12/10 01:41:45;;;;;;;29.57;11.63;;;;;;;;;;6210469;23;20167;-90
2023/12/10 01:44:54;;;;;;;31.07;12.33;;;;;;;;;;6210324;23;20167;-89
2023/12/10 01:48:04;;;;;;;34.00;13.03;;;;;;;;;;6209799;23;20179;-90
2023/12/10 01:51:10;;;;;;;33.10;12.13;;;;;;;;;;6210172;23;20618;-91
2023/12/10 01:54:19;;;;;;;35.10;12.90;;;;;;;;;;6210293;23;20194;-90
2023/12/10 01:57:25;;;;;;;34.77;13.10;;;;;;;;;;6211006;23;20155;-90
2023/12/10 02:00:30;;;;;;;31.70;11.67;;;;;;;;;;6209211;23;20249;-88
2023/12/10 02:03:37;;;;;;;28.13;12.33;;;;;;;;;;6210335;23;20171;-90
2023/12/10 02:06:43;;;;;;;35.67;12.50;;;;;;;;;;6208072;23;20658;-91
2023/12/10 02:09:48;;;;;;;32.00;12.70;;;;;;;;;;6209544;23;20178;-90
2023/12/10 02:12:53;;;;;;;27.17;11.87;;;;;;;;;;6210454;23;20183;-90
2023/12/10 02:15:58;;;;;;;33.13;12.93;;;;;;;;;;6207852;23;20182;-90
2023/12/10 02:19:05;;;;;;;32.40;12.83;;;;;;;;;;6207528;23;20174;-90
2023/12/10 02:22:11;;;;;;;27.03;11.47;;;;;;;;;;6207943;23;20248;-90
2023/12/10 02:25:18;;;;;;;27.23;11.87;;;;;;;;;;6207950;23;20171;-92
2023/12/10 02:28:25;;;;;;;30.70;12.10;;;;;;;;;;6206916;23;20171;-90
2023/12/10 02:31:31;;;;;;;33.00;12.33;;;;;;;;;;6206494;23;20218;-90
2023/12/10 02:34:37;;;;;;;29.97;12.27;;;;;;;;;;6205897;23;20171;-90
2023/12/10 02:37:42;;;;;;;27.57;11.60;;;;;;;;;;6206130;23;20241;-90
2023/12/10 02:40:47;;;;;;;27.97;12.00;;;;;;;;;;6207318;23;20634;-92
2023/12/10 02:43:53;;;;;;;29.97;11.97;;;;;;;;;;6206191;23;20203;-89
2023/12/10 02:46:58;;;;;;;28.40;11.57;;;;;;;;;;6207695;23;20266;-90
2023/12/10 02:50:03;;;;;;;29.63;11.93;;;;;;;;;;6206737;23;20186;-91
2023/12/10 02:53:09;;;;;;;30.87;12.97;;;;;;;;;;6208051;23;20497;-91
2023/12/10 02:56:13;;;;;;;29.37;12.90;;;;;;;;;;6207199;23;20174;-90
2023/12/10 02:59:20;;;;;;;33.77;14.43;;;;;;;;;;6206285;23;20230;-89
2023/12/10 03:02:27;;;;;;;30.13;12.50;;;;;;;;;;6206596;23;20175;-91
2023/12/10 03:05:32;;;;;;;31.97;12.63;;;;;;;;;;6205925;23;20167;-91
2023/12/10 03:08:37;;;;;;;34.07;13.57;;;;;;;;;;6206991;23;20171;-90
2023/12/10 03:11:42;;;;;;;35.33;14.80;;;;;;;;;;6206981;23;20253;-90
2023/12/10 03:14:49;;;;;;;29.47;12.50;;;;;;;;;;6224059;23;20630;-91
2023/12/10 03:17:56;;;;;;;28.67;12.33;;;;;;;;;;6206450;23;20183;-91
2023/12/10 03:21:01;;;;;;;28.33;13.03;;;;;;;;;;6205329;23;20611;-89
2023/12/10 03:24:06;;;;;;;36.03;13.73;;;;;;;;;;6207084;23;20183;-89
2023/12/10 03:27:11;;;;;;;34.90;14.37;;;;;;;;;;6207098;23;20194;-91
2023/12/10 03:30:18;;;;;;;38.87;14.03;;;;;;;;;;6207346;23;20618;-89
2023/12/10 03:33:23;;;;;;;36.37;13.63;;;;;;;;;;6208282;23;20167;-90
2023/12/10 03:36:31;;;;;;;35.07;14.20;;;;;;;;;;6207145;23;20238;-89
2023/12/10 03:39:36;;;;;;;29.57;13.13;;;;;;;;;;6208575;23;20190;-91
2023/12/10 03:42:41;;;;;;;29.57;12.30;;;;;;;;;;6209677;23;20550;-90
2023/12/10 03:45:47;;;;;;;32.60;12.27;;;;;;;;;;6210330;23;20619;-89
2023/12/10 03:48:53;;;;;;;25.73;11.27;;;;;;;;;;6209122;23;20225;-91
2023/12/10 03:52:01;;;;;;;28.37;11.83;;;;;;;;;;6209455;23;20223;-91
2023/12/10 03:55:07;;;;;;;33.73;11.67;;;;;;;;;;6209724;23;20155;-90
2023/12/10 03:58:12;;;;;;;30.43;12.83;;;;;;;;;;6211176;23;20175;-91
2023/12/10 04:01:19;;;;;;;28.70;12.00;;;;;;;;;;6212059;23;20245;-90
2023/12/10 04:04:24;;;;;;;31.73;13.30;;;;;;;;;;6210268;23;20176;-90
2023/12/10 04:07:32;;;;;;;34.17;12.83;;;;;;;;;;6209716;23;20175;-92
2023/12/10 04:10:37;;;;;;;29.43;12.93;;;;;;;;;;6208705;23;20163;-90
2023/12/10 04:13:42;;;;;;;28.07;12.60;;;;;;;;;;6209844;23;20151;-91
2023/12/10 04:16:49;;;;;;;29.10;11.90;;;;;;;;;;6209666;23;20167;-91
2023/12/10 04:19:54;;;;;;;31.97;12.23;;;;;;;;;;6209761;23;20167;-91
2023/12/10 04:23:02;;;;;;;27.53;11.93;;;;;;;;;;6211306;23;20195;-90
2023/12/10 04:26:07;;;;;;;28.67;12.33;;;;;;;;;;6213843;23;20162;-94
2023/12/10 04:29:13;;;;;;;30.67;12.90;;;;;;;;;;6212703;23;20190;-90
2023/12/10 04:32:19;;;;;;;30.57;13.53;;;;;;;;;;6212894;23;20167;-90
2023/12/10 04:35:25;;;;;;;30.37;12.97;;;;;;;;;;6212316;23;20174;-92
2023/12/10 04:38:33;;;;;;;29.93;12.43;;;;;;;;;;6211263;23;20211;-92
2023/12/10 04:41:38;;;;;;;34.27;13.33;;;;;;;;;;6211177;23;20171;-91
2023/12/10 04:44:44;;;;;;;27.23;11.70;;;;;;;;;;6211883;23;20170;-91
2023/12/10 04:47:50;;;;;;;29.87;12.23;;;;;;;;;;6213196;23;20269;-90
2023/12/10 04:51:00;;;;;;;31.57;12.77;;;;;;;;;;6212927;23;20171;-92
2023/12/10 04:54:05;;;;;;;28.33;13.10;;;;;;;;;;6212055;23;20152;-90
2023/12/10 04:57:11;;;;;;;33.17;13.17;;;;;;;;;;6212027;23;20175;-90
2023/12/10 05:00:17;;;;;;;29.70;13.30;;;;;;;;;;6213165;23;20194;-91
2023/12/10 05:03:24;;;;;;;28.97;13.23;;;;;;;;;;6213531;23;20167;-91
2023/12/10 05:06:30;;;;;;;28.77;12.63;;;;;;;;;;6213491;23;20622;-90
2023/12/10 05:09:35;;;;;;;29.73;11.87;;;;;;;;;;6213849;23;20193;-91
2023/12/10 05:12:41;;;;;;;4.63;1.00;;;;;;;;;;6212898;23;20170;-90
2023/12/10 05:15:46;;;;;;;1.53;1.33;;;;;;;;;;6213732;23;20163;-89
2023/12/10 05:18:53;;;;;;;0.70;0.70;;;;;;;;;;6212605;23;20170;-91
2023/12/10 05:21:58;;;;;;;0.93;0.93;;;;;;;;;;6212938;23;20203;-92
2023/12/10 05:25:04;;;;;;;0.50;0.50;;;;;;;;;;6212740;23;20164;-88
2023/12/10 05:28:09;;;;;;;1.13;0.83;;;;;;;;;;6211735;23;20247;-91
2023/12/10 05:31:14;;;;;;;0.63;0.63;;;;;;;;;;6211652;23;20329;-90
2023/12/10 05:34:20;;;;;;;0.53;0.53;;;;;;;;;;6212920;23;20155;-90
2023/12/10 05:37:26;;;;;;;1.37;1.10;;;;;;;;;;6213808;23;20183;-90
2023/12/10 05:40:31;;;;;;;2.50;1.27;;;;;;;;;;6212079;23;20697;-89
2023/12/10 05:43:37;;;;;;;0.77;0.77;;;;;;;;;;6231728;23;20162;-91
2023/12/10 05:46:42;;;;;;;2.27;1.27;;;;;;;;;;6212429;23;20210;-91
2023/12/10 05:49:49;;;;;;;40.90;3.20;;;;;;;;;;6212423;23;20178;-90
2023/12/10 05:52:54;;;;;;;0.63;0.63;;;;;;;;;;6213528;23;20155;-89
2023/12/10 05:56:00;;;;;;;1.60;0.80;;;;;;;;;;6212582;23;20551;-90
2023/12/10 05:59:05;;;;;;;2.53;1.10;;;;;;;;;;6195388;23;20179;-92
2023/12/10 06:02:10;;;;;;;17.93;1.47;;;;;;;;;;6213108;23;20171;-90
2023/12/10 06:05:17;;;;;;;1.47;1.33;;;;;;;;;;6213799;23;20167;-90
2023/12/10 06:08:22;;;;;;;3.40;1.37;;;;;;;;;;6213628;23;20289;-90
2023/12/10 06:11:28;;;;;;;1.43;1.33;;;;;;;;;;6213253;23;20210;-90
2023/12/10 06:14:33;;;;;;;0.80;0.80;;;;;;;;;;6213049;23;20151;-91
2023/12/10 06:17:38;;;;;;;1.10;1.00;;;;;;;;;;6217113;23;20227;-89
2023/12/10 06:20:45;;;;;;;1.33;1.20;;;;;;;;;;6212627;23;20205;-89
2023/12/10 06:23:51;;;;;;;0.93;0.93;;;;;;;;;;6212725;23;20253;-91
2023/12/10 06:26:56;;;;;;;1.03;0.90;;;;;;;;;;6211586;23;20159;-93
2023/12/10 06:30:01;;;;;;;1.37;1.27;;;;;;;;;;6209259;23;20151;-90
2023/12/10 06:33:07;;;;;;;2.00;1.23;;;;;;;;;;6211516;23;20159;-91
2023/12/10 06:36:14;;;;;;;0.57;0.57;;;;;;;;;;6213689;23;20922;-90
2023/12/10 06:39:23;;;;;;;0.53;0.50;;;;;;;;;;6208141;23;20202;-91
2023/12/10 06:42:28;;;;;;;0.70;0.60;;;;;;;;;;6209729;23;20211;-91
2023/12/10 06:45:33;;;;;;;0.30;0.30;;;;;;;;;;6212201;23;20163;-89
2023/12/10 06:48:38;;;;;;;16.13;3.20;;;;;;;;;;6210700;23;20202;-90
2023/12/10 06:51:44;;;;;;;0.20;0.20;;;;;;;;;;6209621;23;20186;-91
2023/12/10 06:54:54;;;;;;;0.47;0.47;;;;;;;;;;6211024;23;20175;-94
2023/12/10 06:57:59;;;;;;;0.30;0.30;;;;;;;;;;6212957;23;20226;-92
2023/12/10 07:01:05;;;;;;;0.40;0.40;;;;;;;;;;6211740;23;20163;-90
2023/12/10 07:04:10;;;;;;;0.30;0.30;;;;;;;;;;6213354;23;20170;-93
2023/12/10 07:07:17;;;;;;;0.80;0.80;;;;;;;;;;6211544;23;20171;-92
2023/12/10 07:10:26;;;;;;;0.63;0.60;;;;;;;;;;6211961;23;20155;-90
2023/12/10 07:13:31;;;;;;;0.40;0.40;;;;;;;;;;6211629;23;20183;-91
2023/12/10 07:16:37;;;;;;;0.47;0.47;;;;;;;;;;6212108;23;20151;-92
2023/12/10 07:19:43;;;;;;;0.30;0.30;;;;;;;;;;6214927;23;20175;-90
2023/12/10 07:22:50;;;;;;;0.63;0.60;;;;;;;;;;6215789;23;20187;-93
2023/12/10 07:25:56;;;;;;;0.73;0.73;;;;;;;;;;6212807;23;20219;-91
2023/12/10 07:29:01;;;;;;;0.40;0.40;;;;;;;;;;6211886;23;20170;-91
2023/12/10 07:32:06;;;;;;;0.30;0.30;;;;;;;;;;6212633;23;20183;-93
2023/12/10 07:35:12;;;;;;;0.60;0.60;;;;;;;;;;6213231;23;20170;-91
2023/12/10 07:38:18;;;;;;;3.30;0.90;;;;;;;;;;6213654;23;20163;-92
2023/12/10 07:41:24;;;;;;;0.30;0.30;;;;;;;;;;6212752;23;20210;-91
2023/12/10 07:44:30;;;;;;;0.90;0.80;;;;;;;;;;6215299;23;20162;-91
2023/12/10 07:47:39;;;;;;;0.40;0.40;;;;;;;;;;6217826;23;20154;-91
2023/12/10 07:50:45;;;;;;;0.30;0.30;;;;;;;;;;6252637;22;20171;-91
2023/12/10 07:53:53;;;;;;;0.30;0.30;;;;;;;;;;6213454;23;20255;-92
2023/12/10 07:56:59;;;;;;;0.40;0.40;;;;;;;;;;6213753;23;20152;-91
2023/12/10 08:00:12;;;;;;;2.40;0.90;;;;;;;;;;6230538;23;20167;-91
2023/12/10 08:03:18;;;;;;;0.50;0.50;;;;;;;;;;6215569;23;20215;-92
2023/12/10 08:06:23;;;;;;;0.47;0.47;;;;;;;;;;6216544;23;20215;-90
2023/12/10 08:09:31;;;;;;;0.40;0.37;;;;;;;;;;6201409;23;20617;-92
2023/12/10 08:12:37;;;;;;;0.40;0.40;;;;;;;;;;6217199;23;20171;-92
2023/12/10 08:15:43;;;;;;;0.37;0.37;;;;;;;;;;6216979;23;20154;-91
2023/12/10 08:18:50;;;;;;;4.10;1.23;;;;;;;;;;6216589;23;20183;-92
2023/12/10 08:21:56;;;;;;;0.73;0.73;;;;;;;;;;6217128;23;20222;-91
2023/12/10 08:25:05;;;;;;;0.70;0.70;;;;;;;;;;6218013;23;20210;-89
2023/12/10 08:28:11;;;;;;;1.60;0.70;;;;;;;;;;6215484;23;20195;-89
2023/12/10 08:31:17;;;;;;;0.60;0.60;;;;;;;;;;6216484;23;20151;-89
2023/12/10 08:34:23;;;;;;;0.70;0.70;;;;;;;;;;6218432;23;20334;-89
2023/12/10 08:37:29;;;;;;;0.30;0.30;;;;;;;;;;6218466;23;20167;-89
2023/12/10 08:40:36;;;;;;;0.40;0.40;;;;;;;;;;6218886;23;20207;-91
2023/12/10 08:43:42;;;;;;;0.40;0.40;;;;;;;;;;6217479;23;20156;-90
2023/12/10 08:50:09;;;;;;;0.40;0.40;;;;;;;;;;6219945;23;20190;-91
2023/12/10 08:53:15;;;;;;;1.10;0.93;;;;;;;;;;6236477;23;20618;-91
2023/12/10 08:56:26;;;;;;;30.97;2.20;;;;;;;;;;6216693;23;20211;-93
2023/12/10 08:59:31;;;;;;;0.30;0.30;;;;;;;;;;6216067;23;20246;-90
2023/12/10 09:02:36;;;;;;;3.30;1.37;;;;;;;;;;6218535;23;20175;-91
2023/12/10 09:05:42;;;;;;;0.60;0.60;;;;;;;;;;6220826;23;20210;-91
2023/12/10 09:08:48;;;;;;;0.50;0.50;;;;;;;;;;6199419;23;20344;-90
2023/12/10 09:11:56;;;;;;;0.90;0.90;;;;;;;;;;6216043;23;20155;-91
2023/12/10 09:15:03;;;;;;;0.93;0.87;;;;;;;;;;6214597;23;20240;-90
2023/12/10 09:18:10;;;;;;;2.10;1.17;;;;;;;;;;6218182;23;20163;-89
2023/12/10 09:21:16;;;;;;;1.50;1.23;;;;;;;;;;6216077;23;20191;-94
2023/12/10 09:24:27;;;;;;;2.67;1.93;;;;;;;;;;6216463;23;20594;-90
2023/12/10 09:27:34;;;;;;;1.17;0.70;;;;;;;;;;6237443;23;20166;-92
2023/12/10 09:30:40;;;;;;;0.30;0.30;;;;;;;;;;6213823;23;20171;-92
2023/12/10 09:33:46;;;;;;;0.35;0.35;;;;;;;;;;6213426;23;20167;-94
2023/12/10 09:36:53;;;;;;;0.32;0.32;;;;;;;;;;6216725;23;20171;-91
2023/12/10 09:40:03;;;;;;;0.40;0.40;;;;;;;;;;6218307;23;20725;-88
2023/12/10 09:43:11;;;;;;;0.30;0.30;;;;;;;;;;6212801;23;20187;-90
2023/12/10 09:46:18;;;;;;;3.03;1.35;;;;;;;;;;6211615;23;20224;-89
2023/12/10 09:49:24;;;;;;;0.30;0.30;;;;;;;;;;6213271;23;20267;-89
2023/12/10 09:52:30;;;;;;;0.77;0.77;;;;;;;;;;6213121;23;20250;-92
2023/12/10 09:55:36;;;;;;;0.40;0.40;;;;;;;;;;6215533;23;20203;-90
2023/12/10 09:58:46;;;;;;;0.50;0.50;;;;;;;;;;6214280;23;20595;-90
2023/12/10 10:01:54;;;;;;;0.68;0.68;;;;;;;;;;6214815;23;20167;-90
2023/12/10 10:04:59;;;;;;;1.75;1.17;;;;;;;;;;6214989;23;20155;-90
2023/12/10 10:08:05;;;;;;;4.27;1.90;;;;;;;;;;6213541;23;20166;-91
2023/12/10 10:11:12;;;;;;;1.95;0.77;;;;;;;;;;6232928;23;20168;-91
2023/12/10 10:14:19;;;;;;;0.30;0.30;;;;;;;;;;6215669;23;20218;-90
2023/12/10 10:17:28;;;;;;;0.50;0.50;;;;;;;;;;6214906;23;20171;-91
2023/12/10 10:20:34;;;;;;;6.83;1.07;;;;;;;;;;6220251;23;20194;-91
2023/12/10 10:23:43;;;;;;;4.33;1.23;;;;;;;;;;6217675;23;20290;-92
2023/12/10 10:26:51;;;;;;;3.33;1.73;;;;;;;;;;6252361;22;20178;-94
2023/12/10 10:30:04;;;;;;;5.37;2.07;;;;;;;;;;6216983;23;20198;-89
2023/12/10 10:33:18;;;;;;;1.47;0.97;;;;;;;;;;6217448;23;20143;-90
2023/12/10 10:36:23;;;;;;;5.18;0.85;;;;;;;;;;6217932;23;20215;-91
2023/12/10 10:39:30;;;;;;;0.50;0.50;;;;;;;;;;6214340;23;20521;-91
2023/12/10 10:42:39;;;;;;;3.60;1.05;;;;;;;;;;6214711;23;20170;-92
2023/12/10 10:45:47;;;;;;;2.28;0.95;;;;;;;;;;6214283;23;20162;-89
2023/12/10 10:48:53;;;;;;;2.88;1.38;;;;;;;;;;6216055;23;20186;-90
2023/12/10 10:52:03;;;;;;;1.75;1.00;;;;;;;;;;6217634;23;20490;-90
2023/12/10 10:55:11;;;;;;;2.08;0.95;;;;;;;;;;6212424;23;20262;-91
2023/12/10 10:58:28;;;;;;;1.25;0.73;;;;;;;;;;6213521;23;20151;-92
2023/12/10 11:01:40;;;;;;;0.60;0.60;;;;;;;;;;6213453;23;20162;-90
2023/12/10 11:04:48;;;;;;;0.65;0.57;;;;;;;;;;6215002;23;20170;-92
2023/12/10 11:07:56;;;;;;;2.55;0.65;;;;;;;;;;6212923;23;20147;-91
2023/12/10 11:11:01;;;;;;;0.90;0.90;;;;;;;;;;6212673;23;20170;-91
2023/12/10 11:14:20;;;;;;;1.95;1.58;;;;;;;;;;6211101;23;20175;-89
2023/12/10 11:17:26;;;;;;;18.30;2.15;;;;;;;;;;6213017;23;20188;-93
2023/12/10 11:20:36;;;;;;;2.13;1.52;;;;;;;;;;6214539;23;20224;-90
2023/12/10 11:23:43;;;;;;;0.50;0.50;;;;;;;;;;6213621;23;20193;-92
2023/12/10 11:26:49;;;;;;;0.40;0.40;;;;;;;;;;6216401;23;20218;-90
2023/12/10 11:29:55;;;;;;;7.53;1.23;;;;;;;;;;6212780;23;20190;-94
2023/12/10 11:33:02;;;;;;;0.30;0.30;;;;;;;;;;6214278;23;20171;-90
2023/12/10 11:36:08;;;;;;;2.28;0.88;;;;;;;;;;6230650;23;20167;-91
2023/12/10 11:39:14;;;;;;;0.60;0.60;;;;;;;;;;6212138;23;20186;-89
2023/12/10 11:42:20;;;;;;;0.40;0.40;;;;;;;;;;6210724;23;20174;-92
2023/12/10 11:45:25;;;;;;;0.63;0.63;;;;;;;;;;6213105;23;20159;-91
2023/12/10 11:48:32;;;;;;;0.60;0.60;;;;;;;;;;6213302;23;20191;-92
2023/12/10 11:51:38;;;;;;;2.30;0.90;;;;;;;;;;6210504;23;20176;-91
2023/12/10 11:54:43;;;;;;;1.00;0.73;;;;;;;;;;6211234;23;20174;-92
2023/12/10 11:57:48;;;;;;;0.47;0.47;;;;;;;;;;6211755;23;20176;-91
2023/12/10 12:00:58;;;;;;;2.05;0.77;;;;;;;;;;6212193;23;20172;-90
2023/12/10 12:04:05;;;;;;;0.43;0.43;;;;;;;;;;6213909;23;20180;-92
2023/12/10 12:07:25;;;;;;;0.30;0.30;;;;;;;;;;6248020;22;20195;-89
2023/12/10 12:10:41;;;;;;;0.30;0.30;;;;;;;;;;6212842;23;20195;-89
2023/12/10 12:13:47;;;;;;;0.30;0.30;;;;;;;;;;6212680;23;20175;-91
2023/12/10 12:16:53;;;;;;;0.73;0.52;;;;;;;;;;6214299;23;20214;-92
2023/12/10 23:02:31;;;;;;;0.47;0.47;;;;;;;;;;5969701;22;3336745;-90
2023/12/10 23:05:36;;;;;;;1.33;1.00;;;;;;;;;;6081861;23;20218;-89
2023/12/10 23:08:41;;;;;;;0.43;0.43;;;;;;;;;;6082855;23;20162;-91
2023/12/10 23:11:47;;;;;;;0.50;0.50;;;;;;;;;;6086790;23;20174;-88
2023/12/10 23:14:53;;;;;;;2.50;1.10;;;;;;;;;;6089844;23;20175;-92
2023/12/10 23:18:03;;;;;;;0.40;0.40;;;;;;;;;;6089201;23;20170;-90
2023/12/10 23:24:28;;;;;;;0.57;0.57;;;;;;;;;;6089728;23;20215;-89
2023/12/10 23:27:35;;;;;;;0.40;0.40;;;;;;;;;;6089655;23;20195;-91
2023/12/10 23:30:42;;;;;;;1.50;0.93;;;;;;;;;;6090809;23;20174;-91
2023/12/10 23:33:51;;;;;;;1.00;0.90;;;;;;;;;;6085371;23;20247;-90
2023/12/10 23:36:57;;;;;;;1.10;1.03;;;;;;;;;;6084272;23;20155;-90
2023/12/10 23:40:02;;;;;;;0.73;0.73;;;;;;;;;;6083355;23;20214;-91
2023/12/10 23:43:08;;;;;;;2.23;1.60;;;;;;;;;;6083292;23;20194;-92
2023/12/10 23:46:13;;;;;;;0.97;0.63;;;;;;;;;;6083255;23;20167;-91
2023/12/10 23:49:20;;;;;;;0.60;0.60;;;;;;;;;;6084776;23;20200;-91
2023/12/10 23:52:28;;;;;;;0.50;0.50;;;;;;;;;;6086456;23;20195;-92
2023/12/10 23:55:34;;;;;;;2.50;1.27;;;;;;;;;;6086760;23;20179;-90
2023/12/10 23:58:41;;;;;;;0.73;0.70;;;;;;;;;;6086238;23;20188;-90
